CLL Airport (Easterwood Field) Information

FAA: CLL - ICAO: KCLL

CLL Airport Location

State Texas
County Brazos
City College Station
CLL Airport is 3 miles southwest of College Station, TX.
Latitude 30-35-16.9508N
Longitude 096-21-45.1600W
Elevation 320ft

KCLL Airport METARs

METAR KCLL 302053Z 04007KT 10SM CLR 29/05 A2997 RMK AO2 SLP144 T02890050 56030
Altimeter 29.97"
Temperature 28.9°C (84.0°F)
Wind 40° at 7KT
Clouds Skies are clear.
Visibility 10.0mi
Time observed: 2022-09-30T20:53:00Z

CLL Airport Details

Status Operational
Activation May 1940
Ownership Public
Usage Public
Chart HOUSTON
ATC on-site Yes
Beacon schedule sunset-sunrise
Beacon color clear green

CLL Airport Contacts

Owner TEXAS A&M UNIVERSITY SYSTEM
Owner address 301 TARROW STREET, COLLEGE STATION, TX 77840
Owner phone (979) 775-9900
Manager BRAD RICHEY
Manager address 469 COUNTY RD 1570, CHICO, TX 76431
Manager phone 940-393-5772

CLL Airport (Easterwood Field) Radio Frequencies

CLL (Airport) Radio Frequencies

UNICOM 122.95
Common traffic advisory frequency (CTAF) 118.5